Time;durP1;ratioP1;P1;durP2;ratioP2;P2;SDS_P1;SDS_P2;PMS_P1;PMS_P2;Temp;Humidity;BMP_temperature;BMP_pressure;BME280_temperature;BME280_humidity;BME280_pressure;Samples;Min_cycle;Max_cycle;Signal;HPM_P1;HPM_P2
2022/09/28 00:02:20;;;;;;;3.38;1.98;;;;;;;;;;5013250;28;20087;-76
2022/09/28 00:04:46;;;;;;;2.85;1.75;;;;;;;;;;5012943;28;20177;-78
2022/09/28 00:07:12;;;;;;;2.47;1.60;;;;;;;;;;5013715;28;20413;-78
2022/09/28 00:09:38;;;;;;;4.72;1.50;;;;;;;;;;5012818;28;20044;-78
2022/09/28 00:12:05;;;;;;;4.93;1.38;;;;;;;;;;5012807;28;20053;-78
2022/09/28 00:14:31;;;;;;;5.55;2.08;;;;;;;;;;5013060;28;20042;-77
2022/09/28 00:16:57;;;;;;;3.47;1.77;;;;;;;;;;5012934;28;20034;-76
2022/09/28 00:19:23;;;;;;;3.05;1.35;;;;;;;;;;5013137;28;20038;-76
2022/09/28 00:21:49;;;;;;;2.13;1.77;;;;;;;;;;5012751;28;20041;-78
2022/09/28 00:24:15;;;;;;;3.83;2.03;;;;;;;;;;5013047;28;20061;-79
2022/09/28 00:27:01;;;;;;;3.20;1.85;;;;;;;;;;5012811;28;20038;-79
2022/09/28 00:29:31;;;;;;;2.33;1.23;;;;;;;;;;5012625;28;20072;-77
2022/09/28 00:32:01;;;;;;;2.58;1.60;;;;;;;;;;5012674;28;20034;-76
2022/09/28 00:34:30;;;;;;;2.17;1.60;;;;;;;;;;5012585;28;20400;-78
2022/09/28 00:36:56;;;;;;;2.13;1.27;;;;;;;;;;5012642;28;20045;-76
2022/09/28 00:39:22;;;;;;;2.00;1.13;;;;;;;;;;4995069;28;20437;-76
2022/09/28 00:41:48;;;;;;;2.67;1.25;;;;;;;;;;5012521;28;20033;-78
2022/09/28 00:44:33;;;;;;;2.17;1.50;;;;;;;;;;5012721;28;20045;-77
2022/09/28 00:47:14;;;;;;;2.45;1.48;;;;;;;;;;5012829;28;20034;-78
2022/09/28 00:49:43;;;;;;;3.90;1.90;;;;;;;;;;5012525;28;20052;-78
2022/09/28 00:52:12;;;;;;;2.55;1.33;;;;;;;;;;5012461;28;20037;-78
2022/09/28 00:54:39;;;;;;;2.38;1.48;;;;;;;;;;5012467;28;20045;-78
2022/09/28 00:57:05;;;;;;;2.15;1.40;;;;;;;;;;5012294;28;20038;-77
2022/09/28 00:59:32;;;;;;;1.65;1.27;;;;;;;;;;5012446;28;20088;-78
2022/09/28 01:01:58;;;;;;;2.38;1.27;;;;;;;;;;5012412;28;20095;-78
2022/09/28 01:04:24;;;;;;;2.08;1.50;;;;;;;;;;5014494;28;20038;-78
2022/09/28 01:06:50;;;;;;;2.88;1.40;;;;;;;;;;5016507;28;20052;-77
2022/09/28 01:09:17;;;;;;;1.90;1.30;;;;;;;;;;5015993;28;20042;-78
2022/09/28 01:11:43;;;;;;;3.25;1.38;;;;;;;;;;5016328;28;20138;-77
2022/09/28 01:14:11;;;;;;;2.97;1.38;;;;;;;;;;5016059;28;20041;-76
2022/09/28 01:16:56;;;;;;;2.95;1.17;;;;;;;;;;5016280;28;20057;-77
2022/09/28 01:19:34;;;;;;;2.13;1.20;;;;;;;;;;5016352;28;20034;-76
2022/09/28 01:22:18;;;;;;;3.65;1.30;;;;;;;;;;5016113;28;20049;-77
2022/09/28 01:24:48;;;;;;;3.40;1.17;;;;;;;;;;5015754;28;20481;-78
2022/09/28 01:27:20;;;;;;;3.28;1.80;;;;;;;;;;5016179;28;20034;-76
2022/09/28 01:29:52;;;;;;;1.85;1.30;;;;;;;;;;5016102;28;20080;-78
2022/09/28 01:32:21;;;;;;;2.00;1.30;;;;;;;;;;5015897;28;20134;-76
2022/09/28 01:35:06;;;;;;;3.92;1.48;;;;;;;;;;5015963;28;20509;-78
2022/09/28 01:37:32;;;;;;;;;;;;;;;;;;5016377;28;20066;-76
2022/09/28 01:40:01;;;;;;;6.38;1.67;;;;;;;;;;5015864;28;20268;-78
2022/09/28 01:42:29;;;;;;;2.40;1.30;;;;;;;;;;5016109;28;20401;-79
2022/09/28 01:45:00;;;;;;;2.55;1.55;;;;;;;;;;5015644;28;20542;-77
2022/09/28 01:47:27;;;;;;;2.10;1.38;;;;;;;;;;5015941;28;20401;-77
2022/09/28 01:49:59;;;;;;;2.67;1.35;;;;;;;;;;5015400;28;20042;-78
2022/09/28 01:52:29;;;;;;;3.97;1.48;;;;;;;;;;5015760;28;20112;-77
2022/09/28 01:54:58;;;;;;;1.15;0.90;;;;;;;;;;5015288;28;20037;-78
2022/09/28 01:57:44;;;;;;;2.80;1.45;;;;;;;;;;5015733;28;20512;-77
2022/09/28 02:00:12;;;;;;;4.97;1.83;;;;;;;;;;5015384;28;20050;-78
2022/09/28 02:02:48;;;;;;;2.63;1.45;;;;;;;;;;5015255;28;20050;-78
2022/09/28 02:05:17;;;;;;;2.03;1.30;;;;;;;;;;5015450;28;20045;-79
2022/09/28 02:07:46;;;;;;;2.40;1.20;;;;;;;;;;5015232;28;20117;-79
2022/09/28 02:10:19;;;;;;;2.40;1.60;;;;;;;;;;5015357;28;20046;-76
2022/09/28 02:12:45;;;;;;;1.75;1.27;;;;;;;;;;5015104;28;20050;-76
2022/09/28 02:15:17;;;;;;;3.28;1.50;;;;;;;;;;5015176;28;20037;-78
2022/09/28 02:17:44;;;;;;;2.65;1.45;;;;;;;;;;5015195;28;20030;-78
2022/09/28 02:20:10;;;;;;;2.88;1.45;;;;;;;;;;5015157;28;20042;-77
2022/09/28 02:22:56;;;;;;;3.65;2.17;;;;;;;;;;5015064;28;20033;-78
2022/09/28 02:25:30;;;;;;;2.55;1.67;;;;;;;;;;5014975;28;20030;-78
2022/09/28 02:27:56;;;;;;;;;;;;;;;;;;5015239;28;20121;-77
2022/09/28 02:30:22;;;;;;;2.30;1.65;;;;;;;;;;5015048;28;19996;-79
2022/09/28 02:32:50;;;;;;;2.92;1.55;;;;;;;;;;5014850;28;20033;-79
2022/09/28 02:35:17;;;;;;;3.65;2.10;;;;;;;;;;5014916;28;20117;-78
2022/09/28 02:37:44;;;;;;;2.42;1.70;;;;;;;;;;5014756;28;20038;-78
2022/09/28 02:40:13;;;;;;;3.55;2.10;;;;;;;;;;5014584;28;20034;-77
2022/09/28 02:43:03;;;;;;;4.10;1.83;;;;;;;;;;5014756;28;20045;-76
2022/09/28 02:45:50;;;;;;;3.45;1.83;;;;;;;;;;4996032;28;20403;-77
2022/09/28 02:48:35;;;;;;;4.32;2.50;;;;;;;;;;4996946;28;20511;-80
2022/09/28 02:51:10;;;;;;;2.40;1.50;;;;;;;;;;5014396;28;20038;-79
2022/09/28 02:53:36;;;;;;;3.83;1.98;;;;;;;;;;5014641;28;20046;-78
2022/09/28 02:56:17;;;;;;;3.45;1.50;;;;;;;;;;5014280;28;20029;-78
2022/09/28 02:58:52;;;;;;;4.85;1.58;;;;;;;;;;5014429;28;20034;-77
2022/09/28 03:01:46;;;;;;;2.58;1.60;;;;;;;;;;5014435;28;20361;-78
2022/09/28 03:04:31;;;;;;;4.05;2.10;;;;;;;;;;5014436;28;20480;-76
2022/09/28 03:07:16;;;;;;;4.00;1.73;;;;;;;;;;5014220;28;20034;-78
2022/09/28 03:09:45;;;;;;;2.83;1.98;;;;;;;;;;5014307;28;20069;-76
2022/09/28 03:12:13;;;;;;;3.90;2.20;;;;;;;;;;5013876;28;20042;-76
2022/09/28 03:14:39;;;;;;;3.70;2.38;;;;;;;;;;5014209;28;20400;-77
2022/09/28 03:17:05;;;;;;;2.92;2.17;;;;;;;;;;5013768;28;20049;-79
2022/09/28 03:19:32;;;;;;;3.35;2.53;;;;;;;;;;5014025;28;20049;-77
2022/09/28 03:21:58;;;;;;;2.83;1.95;;;;;;;;;;5013758;28;20481;-77
2022/09/28 03:24:25;;;;;;;2.33;1.88;;;;;;;;;;5014054;28;20439;-76
2022/09/28 03:26:51;;;;;;;3.30;2.30;;;;;;;;;;5013140;28;20091;-76
2022/09/28 03:29:19;;;;;;;3.33;2.03;;;;;;;;;;5013825;28;20173;-76
2022/09/28 03:31:45;;;;;;;3.53;1.80;;;;;;;;;;5013752;28;20030;-77
2022/09/28 03:34:11;;;;;;;4.63;2.50;;;;;;;;;;5013687;28;20528;-78
2022/09/28 03:36:37;;;;;;;2.65;1.77;;;;;;;;;;5013845;28;20104;-77
2022/09/28 03:39:03;;;;;;;2.60;2.00;;;;;;;;;;5013322;28;20037;-78
2022/09/28 03:41:29;;;;;;;5.35;2.45;;;;;;;;;;5013540;28;20036;-77
2022/09/28 03:43:55;;;;;;;4.13;2.05;;;;;;;;;;5013412;28;20085;-76
2022/09/28 03:46:21;;;;;;;3.22;2.22;;;;;;;;;;5013551;28;20369;-78
2022/09/28 03:48:48;;;;;;;4.13;2.03;;;;;;;;;;5013405;28;20034;-76
2022/09/28 03:51:14;;;;;;;2.45;1.88;;;;;;;;;;5013319;28;20476;-79
2022/09/28 03:53:40;;;;;;;4.05;2.40;;;;;;;;;;5013508;28;20061;-78
2022/09/28 03:56:13;;;;;;;3.42;2.28;;;;;;;;;;5013113;28;20505;-79
2022/09/28 03:58:40;;;;;;;5.43;1.90;;;;;;;;;;5013367;28;20049;-77
2022/09/28 04:01:07;;;;;;;6.78;2.30;;;;;;;;;;5012895;28;20038;-78
2022/09/28 04:03:33;;;;;;;2.65;1.80;;;;;;;;;;5013055;28;20498;-79
2022/09/28 04:06:00;;;;;;;3.45;1.50;;;;;;;;;;5012899;28;20038;-76
2022/09/28 04:08:26;;;;;;;3.13;2.00;;;;;;;;;;5013278;28;20126;-77
2022/09/28 04:10:56;;;;;;;4.28;1.98;;;;;;;;;;5012700;28;20046;-77
2022/09/28 04:13:22;;;;;;;5.70;3.05;;;;;;;;;;5013110;28;20030;-77
2022/09/28 04:15:52;;;;;;;2.85;2.00;;;;;;;;;;5013152;28;20094;-79
2022/09/28 04:18:18;;;;;;;5.13;2.22;;;;;;;;;;5012995;28;20092;-77
2022/09/28 04:20:46;;;;;;;6.00;2.33;;;;;;;;;;5012980;28;20038;-80
2022/09/28 04:23:13;;;;;;;2.95;2.15;;;;;;;;;;5012848;28;20034;-77
2022/09/28 04:25:39;;;;;;;5.60;2.63;;;;;;;;;;5012822;28;20060;-78
2022/09/28 04:30:50;;;;;;;3.25;1.88;;;;;;;;;;5012766;28;20495;-77
2022/09/28 04:33:16;;;;;;;3.10;1.50;;;;;;;;;;5012980;28;20044;-77
2022/09/28 04:35:42;;;;;;;3.55;1.58;;;;;;;;;;5012979;28;20381;-78
2022/09/28 04:38:08;;;;;;;4.25;2.42;;;;;;;;;;5011953;28;20065;-79
2022/09/28 04:40:34;;;;;;;5.82;3.38;;;;;;;;;;5012675;28;20045;-78
2022/09/28 04:43:00;;;;;;;6.07;4.88;;;;;;;;;;5012452;28;20038;-79
2022/09/28 04:45:27;;;;;;;7.15;5.07;;;;;;;;;;5012641;28;20041;-77
2022/09/28 04:47:53;;;;;;;6.65;3.60;;;;;;;;;;5012153;28;20034;-80
2022/09/28 04:50:19;;;;;;;6.95;3.60;;;;;;;;;;5012488;28;20053;-79
2022/09/28 04:52:45;;;;;;;7.25;4.22;;;;;;;;;;5012336;28;20148;-78
2022/09/28 04:55:15;;;;;;;4.40;3.92;;;;;;;;;;5012457;28;20038;-81
2022/09/28 04:57:42;;;;;;;5.55;3.88;;;;;;;;;;5012466;28;20528;-82
2022/09/28 05:00:09;;;;;;;5.25;4.00;;;;;;;;;;5012371;28;20087;-81
2022/09/28 05:02:35;;;;;;;12.00;4.60;;;;;;;;;;5012441;28;20476;-80
2022/09/28 05:05:01;;;;;;;10.05;3.75;;;;;;;;;;5012327;28;20055;-80
2022/09/28 05:07:27;;;;;;;6.97;3.50;;;;;;;;;;5012532;28;20496;-80
2022/09/28 05:09:54;;;;;;;7.82;4.20;;;;;;;;;;5012044;28;20033;-80
2022/09/28 05:12:20;;;;;;;8.40;4.00;;;;;;;;;;5011875;28;20049;-78
2022/09/28 05:14:47;;;;;;;8.35;4.10;;;;;;;;;;5012229;28;20045;-78
2022/09/28 05:17:13;;;;;;;8.73;4.32;;;;;;;;;;5012297;28;20030;-80
2022/09/28 05:19:39;;;;;;;8.02;3.70;;;;;;;;;;5012074;28;20436;-83
2022/09/28 05:22:10;;;;;;;5.60;3.25;;;;;;;;;;5010021;28;20034;-78
2022/09/28 05:24:36;;;;;;;6.25;3.60;;;;;;;;;;5012019;28;20038;-78
2022/09/28 05:27:02;;;;;;;5.43;2.67;;;;;;;;;;5013980;28;20042;-78
2022/09/28 05:29:28;;;;;;;4.68;2.78;;;;;;;;;;5012745;28;20485;-78
2022/09/28 05:31:54;;;;;;;5.03;2.20;;;;;;;;;;5010713;28;20041;-78
2022/09/28 05:34:20;;;;;;;4.65;3.15;;;;;;;;;;5008695;28;20073;-78
2022/09/28 05:36:47;;;;;;;6.93;4.78;;;;;;;;;;5000459;28;20053;-77
2022/09/28 05:39:13;;;;;;;10.30;6.50;;;;;;;;;;5008352;28;20129;-79
2022/09/28 05:41:39;;;;;;;8.38;5.55;;;;;;;;;;5010434;28;20060;-83
2022/09/28 05:44:05;;;;;;;8.73;4.95;;;;;;;;;;5007298;28;20041;-80
2022/09/28 05:46:32;;;;;;;7.75;4.75;;;;;;;;;;5011989;28;20048;-80
2022/09/28 05:48:59;;;;;;;8.90;5.25;;;;;;;;;;5014267;28;20092;-80
2022/09/28 05:51:25;;;;;;;12.52;5.57;;;;;;;;;;5013252;28;20121;-81
2022/09/28 05:53:54;;;;;;;7.65;4.75;;;;;;;;;;5014416;28;20029;-79
2022/09/28 05:56:20;;;;;;;8.43;5.72;;;;;;;;;;5014270;28;20034;-82
2022/09/28 05:58:46;;;;;;;6.68;5.50;;;;;;;;;;5014016;28;20594;-82
2022/09/28 06:01:12;;;;;;;8.57;4.75;;;;;;;;;;5014616;28;20029;-78
2022/09/28 06:03:38;;;;;;;4.45;3.55;;;;;;;;;;5013023;28;20124;-77
2022/09/28 06:06:04;;;;;;;6.07;3.63;;;;;;;;;;5007094;28;20034;-83
2022/09/28 06:08:31;;;;;;;5.35;3.22;;;;;;;;;;5007276;28;20477;-80
2022/09/28 06:11:01;;;;;;;6.18;2.88;;;;;;;;;;4989574;28;20108;-80
2022/09/28 06:13:27;;;;;;;4.95;2.40;;;;;;;;;;5012467;28;20049;-79
2022/09/28 06:15:54;;;;;;;5.25;2.90;;;;;;;;;;5010721;28;20034;-79
2022/09/28 06:18:21;;;;;;;3.20;2.28;;;;;;;;;;5013372;28;20489;-79
2022/09/28 06:20:47;;;;;;;4.00;2.65;;;;;;;;;;5013731;28;20030;-81
2022/09/28 06:23:13;;;;;;;6.93;4.18;;;;;;;;;;5031537;28;20033;-81
2022/09/28 06:25:39;;;;;;;7.68;3.95;;;;;;;;;;5033371;28;20033;-82
2022/09/28 06:28:08;;;;;;;5.50;4.07;;;;;;;;;;5013669;28;20042;-79
2022/09/28 06:30:37;;;;;;;13.23;6.88;;;;;;;;;;5012642;28;20034;-82
2022/09/28 06:33:04;;;;;;;64.95;21.02;;;;;;;;;;5012609;28;20046;-77
2022/09/28 06:35:31;;;;;;;65.70;20.67;;;;;;;;;;5010033;28;20041;-78
2022/09/28 06:37:58;;;;;;;136.63;40.65;;;;;;;;;;5012843;28;20062;-78
2022/09/28 06:40:24;;;;;;;94.32;30.10;;;;;;;;;;5008081;28;20393;-77
2022/09/28 06:43:00;;;;;;;158.52;47.67;;;;;;;;;;5017844;28;20041;-78
2022/09/28 06:45:27;;;;;;;148.73;47.28;;;;;;;;;;5016201;28;20048;-77
2022/09/28 06:47:57;;;;;;;61.22;21.67;;;;;;;;;;5016682;28;20038;-77
2022/09/28 06:50:24;;;;;;;60.15;20.25;;;;;;;;;;5013343;28;20042;-77
2022/09/28 06:52:51;;;;;;;54.08;19.23;;;;;;;;;;5013047;28;20671;-83
2022/09/28 06:55:17;;;;;;;45.13;18.38;;;;;;;;;;5011578;28;20049;-84
2022/09/28 06:57:44;;;;;;;34.90;14.05;;;;;;;;;;5012468;28;20044;-80
2022/09/28 07:00:10;;;;;;;55.80;19.23;;;;;;;;;;5008260;28;20472;-79
2022/09/28 07:02:36;;;;;;;46.83;17.75;;;;;;;;;;5011345;28;20042;-83
2022/09/28 07:05:02;;;;;;;52.42;18.73;;;;;;;;;;5018455;28;20525;-81
2022/09/28 07:07:30;;;;;;;40.30;13.07;;;;;;;;;;5011954;28;20046;-83
2022/09/28 07:09:56;;;;;;;44.75;14.82;;;;;;;;;;5008730;28;20145;-82
2022/09/28 07:12:23;;;;;;;30.92;11.38;;;;;;;;;;5002243;28;20056;-85
2022/09/28 07:14:54;;;;;;;19.63;8.25;;;;;;;;;;4994589;28;20069;-81
2022/09/28 07:17:21;;;;;;;16.83;6.78;;;;;;;;;;5011865;28;20428;-81
2022/09/28 07:19:51;;;;;;;23.42;7.97;;;;;;;;;;5012477;28;20045;-82
2022/09/28 07:22:17;;;;;;;14.13;6.55;;;;;;;;;;5022834;28;20091;-82
2022/09/28 07:24:43;;;;;;;46.63;26.17;;;;;;;;;;5032157;28;20159;-84
2022/09/28 07:27:09;;;;;;;29.13;12.50;;;;;;;;;;4995713;28;20516;-83
2022/09/28 07:29:35;;;;;;;61.72;19.17;;;;;;;;;;5002159;28;20072;-81
2022/09/28 07:32:02;;;;;;;26.73;9.15;;;;;;;;;;4993078;28;20488;-82
2022/09/28 07:34:28;;;;;;;25.60;8.55;;;;;;;;;;5003304;28;20493;-83
2022/09/28 07:36:57;;;;;;;29.17;8.20;;;;;;;;;;4994698;28;20089;-84
2022/09/28 07:39:23;;;;;;;10.23;4.72;;;;;;;;;;5011468;28;20175;-83
2022/09/28 07:41:50;;;;;;;3.63;2.22;;;;;;;;;;5011018;28;20496;-85
2022/09/28 07:44:17;;;;;;;9.00;5.60;;;;;;;;;;5011821;28;20033;-85
2022/09/28 07:46:43;;;;;;;4.85;2.20;;;;;;;;;;5011123;28;20479;-83
2022/09/28 07:49:10;;;;;;;12.35;7.20;;;;;;;;;;5010078;28;20037;-87
2022/09/28 07:51:36;;;;;;;54.63;20.77;;;;;;;;;;5010271;28;20512;-85
2022/09/28 07:54:02;;;;;;;23.90;8.90;;;;;;;;;;5012190;28;20126;-83
2022/09/28 07:56:29;;;;;;;14.73;4.45;;;;;;;;;;5013733;28;20037;-86
2022/09/28 07:58:56;;;;;;;12.90;5.95;;;;;;;;;;5012511;28;20033;-84
2022/09/28 08:01:22;;;;;;;5.85;2.55;;;;;;;;;;5009400;28;20045;-83
2022/09/28 08:03:48;;;;;;;18.30;12.52;;;;;;;;;;5012416;28;20477;-83
2022/09/28 08:06:15;;;;;;;7.38;5.82;;;;;;;;;;5010645;28;20045;-83
2022/09/28 08:08:43;;;;;;;5.07;2.42;;;;;;;;;;5004473;28;20476;-82
2022/09/28 08:11:12;;;;;;;4.07;2.08;;;;;;;;;;5008022;28;20058;-84
2022/09/28 08:13:39;;;;;;;3.53;2.00;;;;;;;;;;5011322;28;20706;-84
2022/09/28 08:16:07;;;;;;;52.22;18.42;;;;;;;;;;5007349;28;20452;-82
2022/09/28 08:18:34;;;;;;;34.33;14.30;;;;;;;;;;5009712;28;20594;-83
2022/09/28 08:23:45;;;;;;;40.63;14.18;;;;;;;;;;4998492;28;20372;-81
2022/09/28 08:26:11;;;;;;;147.95;49.33;;;;;;;;;;5010105;28;20587;-81
2022/09/28 08:28:38;;;;;;;70.60;25.95;;;;;;;;;;5011499;28;20032;-81
2022/09/28 08:31:06;;;;;;;46.65;15.57;;;;;;;;;;5009895;28;20050;-80
2022/09/28 08:33:32;;;;;;;11.38;3.53;;;;;;;;;;5011430;28;20073;-78
2022/09/28 08:36:00;;;;;;;27.45;9.55;;;;;;;;;;5011222;28;20399;-78
2022/09/28 08:38:26;;;;;;;33.42;12.00;;;;;;;;;;5001976;28;20042;-81
2022/09/28 08:41:11;;;;;;;51.38;18.95;;;;;;;;;;4991726;28;20042;-76
2022/09/28 08:43:55;;;;;;;28.95;12.05;;;;;;;;;;4991533;28;20042;-79
2022/09/28 08:46:23;;;;;;;64.20;23.30;;;;;;;;;;5007928;28;20040;-77
2022/09/28 08:49:10;;;;;;;17.55;5.63;;;;;;;;;;5009167;28;20315;-78
2022/09/28 08:51:36;;;;;;;5.97;2.25;;;;;;;;;;5011475;28;20393;-80
2022/09/28 08:54:03;;;;;;;10.63;3.90;;;;;;;;;;5011094;28;20080;-79
2022/09/28 08:56:35;;;;;;;20.42;7.72;;;;;;;;;;5010059;28;20044;-79
2022/09/28 08:59:03;;;;;;;34.60;12.02;;;;;;;;;;5010136;28;20073;-81
2022/09/28 09:01:38;;;;;;;32.75;12.43;;;;;;;;;;4993763;28;20076;-80
2022/09/28 09:04:05;;;;;;;24.70;10.45;;;;;;;;;;5009151;28;20409;-79
2022/09/28 09:06:40;;;;;;;13.52;4.28;;;;;;;;;;5007614;28;20038;-80
2022/09/28 09:09:12;;;;;;;5.70;2.25;;;;;;;;;;5008872;28;20049;-82
2022/09/28 09:11:43;;;;;;;12.52;4.55;;;;;;;;;;5010060;28;20523;-81
2022/09/28 09:14:09;;;;;;;6.10;2.40;;;;;;;;;;4985289;28;20098;-81
2022/09/28 09:16:38;;;;;;;21.38;8.02;;;;;;;;;;5010357;28;20053;-78
2022/09/28 09:19:04;;;;;;;8.32;3.08;;;;;;;;;;5006189;28;20100;-80
2022/09/28 09:21:30;;;;;;;5.40;1.90;;;;;;;;;;5008417;28;20521;-82
2022/09/28 09:24:02;;;;;;;4.00;1.50;;;;;;;;;;5007939;28;20503;-80
2022/09/28 09:26:38;;;;;;;19.90;7.85;;;;;;;;;;5012674;28;20076;-80
2022/09/28 09:29:23;;;;;;;10.30;5.88;;;;;;;;;;5014179;28;20096;-81
2022/09/28 09:31:58;;;;;;;11.05;6.47;;;;;;;;;;5008442;28;20938;-80
2022/09/28 09:34:34;;;;;;;10.45;5.20;;;;;;;;;;5010132;28;20042;-81
2022/09/28 09:37:12;;;;;;;35.45;22.33;;;;;;;;;;5008940;28;20033;-83
2022/09/28 09:39:43;;;;;;;19.83;9.68;;;;;;;;;;5013125;28;20167;-80
2022/09/28 09:42:28;;;;;;;11.93;4.25;;;;;;;;;;5007339;28;20046;-80
2022/09/28 09:45:13;;;;;;;16.17;6.80;;;;;;;;;;5013924;28;20065;-78
2022/09/28 09:47:38;;;;;;;;;;;;;;;;;;5013589;28;20087;-80
2022/09/28 09:50:11;;;;;;;16.58;8.18;;;;;;;;;;5010101;28;20346;-79
2022/09/28 09:52:56;;;;;;;9.43;4.15;;;;;;;;;;5015350;28;20050;-80
2022/09/28 09:55:36;;;;;;;6.03;3.10;;;;;;;;;;5010723;28;20027;-79
2022/09/28 09:58:09;;;;;;;7.28;2.97;;;;;;;;;;5012449;28;20511;-80
2022/09/28 10:00:35;;;;;;;8.02;2.25;;;;;;;;;;4988023;28;20042;-79
2022/09/28 10:03:01;;;;;;;5.10;1.10;;;;;;;;;;5012646;28;20038;-78
2022/09/28 10:05:30;;;;;;;3.05;1.08;;;;;;;;;;5022993;28;20096;-80
2022/09/28 10:08:02;;;;;;;3.17;0.60;;;;;;;;;;5031864;28;20046;-80
2022/09/28 10:10:30;;;;;;;13.93;2.30;;;;;;;;;;5014806;28;20042;-79
2022/09/28 10:12:56;;;;;;;5.40;1.65;;;;;;;;;;5011611;28;20054;-79
2022/09/28 10:15:27;;;;;;;4.80;1.08;;;;;;;;;;5013273;28;20080;-78
2022/09/28 10:17:55;;;;;;;4.70;1.05;;;;;;;;;;5011557;28;20640;-78
2022/09/28 10:20:21;;;;;;;5.15;1.02;;;;;;;;;;4976693;28;20087;-80
2022/09/28 10:22:49;;;;;;;3.90;0.98;;;;;;;;;;5012785;28;20046;-79
2022/09/28 10:25:15;;;;;;;6.40;2.28;;;;;;;;;;5011340;28;20404;-78
2022/09/28 10:27:48;;;;;;;7.60;2.55;;;;;;;;;;5013159;28;20389;-78
2022/09/28 10:30:17;;;;;;;5.38;1.70;;;;;;;;;;5013686;28;20065;-79
2022/09/28 10:32:45;;;;;;;6.78;2.10;;;;;;;;;;5011288;28;20030;-80
2022/09/28 10:35:31;;;;;;;5.75;1.30;;;;;;;;;;5013921;28;20044;-79
2022/09/28 10:37:58;;;;;;;3.42;1.23;;;;;;;;;;5010795;28;20281;-78
2022/09/28 10:40:30;;;;;;;10.63;1.65;;;;;;;;;;5012647;28;20389;-77
2022/09/28 10:43:03;;;;;;;6.45;0.80;;;;;;;;;;5012858;28;20042;-77
2022/09/28 10:45:33;;;;;;;3.75;0.90;;;;;;;;;;4984594;28;20159;-76
2022/09/28 10:48:00;;;;;;;5.10;1.38;;;;;;;;;;5004034;28;20042;-77
2022/09/28 10:50:27;;;;;;;3.08;1.08;;;;;;;;;;5012078;28;20051;-77
2022/09/28 10:52:53;;;;;;;2.13;0.55;;;;;;;;;;5010922;28;20041;-78
2022/09/28 10:55:32;;;;;;;2.40;0.45;;;;;;;;;;5010320;28;20046;-77
2022/09/28 10:58:17;;;;;;;11.95;6.70;;;;;;;;;;5010715;28;20045;-77
2022/09/28 11:00:44;;;;;;;9.65;2.50;;;;;;;;;;5012417;28;20050;-76
2022/09/28 11:03:24;;;;;;;3.70;1.20;;;;;;;;;;5015176;28;20033;-77
2022/09/28 11:05:57;;;;;;;4.32;0.77;;;;;;;;;;5010657;28;20041;-77
2022/09/28 11:08:28;;;;;;;10.17;2.50;;;;;;;;;;5010759;28;20072;-79
2022/09/28 11:11:01;;;;;;;4.18;1.10;;;;;;;;;;5013076;28;20457;-78
2022/09/28 11:13:27;;;;;;;14.20;4.33;;;;;;;;;;5012538;28;20088;-79
2022/09/28 11:15:53;;;;;;;23.88;8.55;;;;;;;;;;5011988;28;20843;-77
2022/09/28 11:18:21;;;;;;;59.55;21.08;;;;;;;;;;5012668;28;20084;-77
2022/09/28 11:20:48;;;;;;;76.50;28.45;;;;;;;;;;5013317;28;20041;-79
2022/09/28 11:23:17;;;;;;;40.28;14.80;;;;;;;;;;5012633;28;20053;-78
2022/09/28 11:25:44;;;;;;;8.60;3.05;;;;;;;;;;5010674;28;20038;-79
2022/09/28 11:28:19;;;;;;;28.85;12.77;;;;;;;;;;5012905;28;20080;-78
2022/09/28 11:30:48;;;;;;;32.58;14.55;;;;;;;;;;5011970;28;20554;-76
2022/09/28 11:33:19;;;;;;;82.88;28.05;;;;;;;;;;5012802;28;20065;-79
2022/09/28 11:35:45;;;;;;;108.57;37.25;;;;;;;;;;5012713;28;20033;-79
2022/09/28 11:38:11;;;;;;;54.05;17.38;;;;;;;;;;5010404;28;20173;-79
2022/09/28 11:40:56;;;;;;;21.77;7.80;;;;;;;;;;4991401;28;20042;-79
2022/09/28 11:43:42;;;;;;;45.25;13.77;;;;;;;;;;5012598;28;20042;-80
2022/09/28 11:46:08;;;;;;;12.80;3.30;;;;;;;;;;5011810;28;20046;-79
2022/09/28 11:48:49;;;;;;;21.60;7.65;;;;;;;;;;5011936;28;20117;-78
2022/09/28 11:51:20;;;;;;;10.68;3.75;;;;;;;;;;5011594;28;20045;-78
2022/09/28 11:54:12;;;;;;;4.78;1.90;;;;;;;;;;5012496;28;20488;-79
2022/09/28 11:56:40;;;;;;;15.25;6.18;;;;;;;;;;5004363;28;20476;-79
2022/09/28 11:59:09;;;;;;;14.25;3.42;;;;;;;;;;5011472;28;20436;-79
2022/09/28 12:01:38;;;;;;;3.22;1.02;;;;;;;;;;5009744;28;20056;-80
2022/09/28 12:04:25;;;;;;;3.17;1.50;;;;;;;;;;5010152;28;20045;-80
2022/09/28 12:07:05;;;;;;;4.28;0.90;;;;;;;;;;4995901;28;20045;-80
2022/09/28 12:09:37;;;;;;;4.60;1.92;;;;;;;;;;5012839;28;20050;-80
2022/09/28 12:12:09;;;;;;;3.25;1.42;;;;;;;;;;5012889;28;20068;-79
2022/09/28 12:14:38;;;;;;;12.43;2.42;;;;;;;;;;4995827;28;20033;-80
2022/09/28 12:17:16;;;;;;;4.78;1.20;;;;;;;;;;5013401;28;20033;-80
2022/09/28 12:19:48;;;;;;;4.95;2.58;;;;;;;;;;5013180;28;20070;-81
2022/09/28 12:22:23;;;;;;;5.05;1.20;;;;;;;;;;4994836;28;20042;-80
2022/09/28 12:24:51;;;;;;;7.70;1.65;;;;;;;;;;5012773;28;20065;-78
2022/09/28 12:27:26;;;;;;;3.38;0.65;;;;;;;;;;5013193;28;20075;-78
2022/09/28 12:30:12;;;;;;;3.35;1.00;;;;;;;;;;4993141;28;20073;-80
2022/09/28 12:32:42;;;;;;;11.75;6.25;;;;;;;;;;5005144;28;20100;-81
2022/09/28 12:35:27;;;;;;;24.45;11.43;;;;;;;;;;4997613;28;20112;-80
2022/09/28 12:38:11;;;;;;;29.98;10.65;;;;;;;;;;5012110;28;20037;-78
2022/09/28 12:40:44;;;;;;;11.60;6.80;;;;;;;;;;5012113;28;20113;-79
2022/09/28 12:43:16;;;;;;;27.90;8.93;;;;;;;;;;4992010;28;20042;-79
2022/09/28 12:45:49;;;;;;;26.15;7.93;;;;;;;;;;5011829;28;20125;-74
2022/09/28 12:48:18;;;;;;;12.07;3.93;;;;;;;;;;5012999;28;20052;-79
2022/09/28 12:51:05;;;;;;;29.08;12.55;;;;;;;;;;5012772;28;20497;-78
2022/09/28 12:53:37;;;;;;;12.82;6.90;;;;;;;;;;4996147;28;20517;-77
2022/09/28 12:56:22;;;;;;;4.90;1.80;;;;;;;;;;5010635;28;20041;-78
2022/09/28 12:58:52;;;;;;;4.13;1.88;;;;;;;;;;5010894;28;20053;-78
2022/09/28 13:01:38;;;;;;;4.18;1.25;;;;;;;;;;5011046;28;20037;-77
2022/09/28 13:04:10;;;;;;;8.05;6.10;;;;;;;;;;4994079;28;20041;-79
2022/09/28 13:06:45;;;;;;;5.35;1.70;;;;;;;;;;5011548;28;20042;-77
2022/09/28 13:09:30;;;;;;;4.22;1.05;;;;;;;;;;4994077;28;20050;-78
2022/09/28 13:11:59;;;;;;;4.85;2.08;;;;;;;;;;5011441;28;20041;-78
2022/09/28 13:14:44;;;;;;;5.18;1.08;;;;;;;;;;5011538;28;20025;-78
2022/09/28 13:17:29;;;;;;;3.42;2.15;;;;;;;;;;5011550;28;20030;-79
2022/09/28 13:20:03;;;;;;;1.02;0.50;;;;;;;;;;5011858;28;20070;-79
2022/09/28 13:22:35;;;;;;;3.20;0.75;;;;;;;;;;5011175;28;20037;-80
2022/09/28 13:25:04;;;;;;;2.25;0.65;;;;;;;;;;5011184;28;20488;-78
2022/09/28 13:27:35;;;;;;;3.30;0.75;;;;;;;;;;5011320;28;20050;-80
2022/09/28 13:30:05;;;;;;;2.40;0.68;;;;;;;;;;5010452;28;20042;-79
2022/09/28 13:32:32;;;;;;;1.20;0.57;;;;;;;;;;5011352;28;20038;-80
2022/09/28 13:35:00;;;;;;;4.82;0.95;;;;;;;;;;5011512;28;20045;-80
2022/09/28 13:37:27;;;;;;;12.05;7.38;;;;;;;;;;5012594;28;20038;-80
2022/09/28 13:39:57;;;;;;;6.72;3.28;;;;;;;;;;5013024;28;20038;-80
2022/09/28 13:42:26;;;;;;;2.78;0.80;;;;;;;;;;5013111;28;20481;-81
2022/09/28 13:45:11;;;;;;;13.40;8.40;;;;;;;;;;5012968;28;20061;-81
2022/09/28 13:47:56;;;;;;;13.82;8.60;;;;;;;;;;5013062;28;20033;-81
2022/09/28 13:50:25;;;;;;;6.88;3.58;;;;;;;;;;5012911;28;20485;-81
2022/09/28 13:53:03;;;;;;;4.00;1.98;;;;;;;;;;5012849;28;20038;-81
2022/09/28 13:55:47;;;;;;;8.15;5.75;;;;;;;;;;5012088;28;20068;-80
2022/09/28 13:58:32;;;;;;;4.95;2.35;;;;;;;;;;5012252;28;20034;-81
2022/09/28 14:00:58;;;;;;;2.83;0.85;;;;;;;;;;5008597;28;20042;-80
2022/09/28 14:03:43;;;;;;;2.40;0.60;;;;;;;;;;5011868;28;20120;-80
2022/09/28 14:06:28;;;;;;;5.10;2.28;;;;;;;;;;5010813;28;20042;-82
2022/09/28 14:09:12;;;;;;;4.00;0.98;;;;;;;;;;5002738;28;20033;-81
2022/09/28 14:11:43;;;;;;;1.75;0.88;;;;;;;;;;4996511;28;20462;-80
2022/09/28 14:14:13;;;;;;;2.65;0.90;;;;;;;;;;5007105;28;20034;-81
2022/09/28 14:16:40;;;;;;;1.42;0.50;;;;;;;;;;5025449;28;20033;-80
2022/09/28 14:19:25;;;;;;;1.52;0.60;;;;;;;;;;5031518;28;20520;-79
2022/09/28 14:22:10;;;;;;;1.95;0.40;;;;;;;;;;5029501;28;20029;-78
2022/09/28 14:24:55;;;;;;;4.75;0.95;;;;;;;;;;4996327;28;20035;-81
2022/09/28 14:27:40;;;;;;;3.10;0.63;;;;;;;;;;4977796;28;20121;-78
2022/09/28 14:30:06;;;;;;;1.58;0.50;;;;;;;;;;4994743;28;20249;-78
2022/09/28 14:32:36;;;;;;;2.90;0.38;;;;;;;;;;5000520;28;20042;-81
2022/09/28 14:35:20;;;;;;;4.60;1.20;;;;;;;;;;5015310;28;20046;-79
2022/09/28 14:43:43;;;;;;;2.33;0.55;;;;;;;;;;5014261;28;20381;-80
2022/09/28 14:46:10;;;;;;;3.95;0.90;;;;;;;;;;5014704;28;20113;-80
2022/09/28 14:48:48;;;;;;;2.97;0.60;;;;;;;;;;5014748;28;20076;-80
2022/09/28 14:51:26;;;;;;;3.67;1.13;;;;;;;;;;4995866;28;20069;-79
2022/09/28 14:56:52;;;;;;;2.13;0.47;;;;;;;;;;5014626;28;20405;-78
2022/09/28 14:59:19;;;;;;;1.63;0.40;;;;;;;;;;5022631;28;20109;-80
2022/09/28 15:01:52;;;;;;;3.10;0.65;;;;;;;;;;5014275;28;20057;-80
2022/09/28 15:04:18;;;;;;;1.63;0.40;;;;;;;;;;5014429;28;20053;-80
2022/09/28 15:06:46;;;;;;;2.03;0.50;;;;;;;;;;5012710;28;20038;-79
2022/09/28 15:09:30;;;;;;;3.65;0.50;;;;;;;;;;5013448;28;20045;-80
2022/09/28 15:12:00;;;;;;;1.73;0.80;;;;;;;;;;5013983;28;20409;-78
2022/09/28 15:14:30;;;;;;;2.83;0.82;;;;;;;;;;5014321;28;20399;-79